Time;durP1;ratioP1;P1;durP2;ratioP2;P2;SDS_P1;SDS_P2;PMS_P1;PMS_P2;Temp;Humidity;BMP_temperature;BMP_pressure;BME280_temperature;BME280_humidity;BME280_pressure;Samples;Min_cycle;Max_cycle;Signal;HPM_P1;HPM_P2
2021/03/02 00:01:18;;;;;;;1999.90;999.90;;;3.50;99.90;;;;;;5019111;28;20576;-81
2021/03/02 00:03:45;;;;;;;1999.90;999.90;;;3.50;99.90;;;;;;5017652;28;20260;-81
2021/03/02 00:06:11;;;;;;;1999.90;999.90;;;3.50;99.90;;;;;;5017780;28;20409;-81
2021/03/02 00:08:38;;;;;;;1999.90;999.90;;;3.40;99.90;;;;;;5018207;28;20585;-81
2021/03/02 00:11:05;;;;;;;1999.90;999.90;;;3.40;99.90;;;;;;5018128;28;20764;-81
2021/03/02 00:13:32;;;;;;;1999.90;999.90;;;3.40;99.90;;;;;;5018613;28;20194;-80
2021/03/02 00:16:03;;;;;;;1999.90;999.90;;;3.30;99.90;;;;;;5017262;28;20196;-81
2021/03/02 00:18:46;;;;;;;1999.90;999.90;;;3.30;99.90;;;;;;5018503;28;20252;-81
2021/03/02 00:21:20;;;;;;;1999.90;999.90;;;3.20;99.90;;;;;;5018289;28;20616;-81
2021/03/02 00:24:01;;;;;;;1999.90;999.90;;;3.20;99.90;;;;;;5018044;28;20595;-81
2021/03/02 00:26:29;;;;;;;1999.90;999.90;;;3.20;99.90;;;;;;5016640;28;20166;-81
2021/03/02 00:29:00;;;;;;;1999.90;999.90;;;3.10;99.90;;;;;;5018444;28;20246;-81
2021/03/02 00:31:27;;;;;;;1999.90;999.90;;;3.10;99.90;;;;;;5018577;28;20158;-81
2021/03/02 00:33:52;;;;;;;1999.90;999.90;;;3.10;99.90;;;;;;5001248;28;20170;-81
2021/03/02 00:36:18;;;;;;;1999.90;999.90;;;3.00;99.90;;;;;;5018431;28;20244;-81
2021/03/02 00:38:44;;;;;;;1999.90;999.90;;;3.00;99.90;;;;;;5018325;28;20158;-81
2021/03/02 00:41:09;;;;;;;1999.90;999.90;;;3.00;99.90;;;;;;5018580;28;20192;-81
2021/03/02 00:43:35;;;;;;;1999.90;999.90;;;2.90;99.90;;;;;;5018319;28;20170;-81
2021/03/02 00:46:01;;;;;;;1999.90;999.90;;;2.90;99.90;;;;;;5017749;28;20196;-81
2021/03/02 00:48:27;;;;;;;1999.90;999.90;;;2.90;99.90;;;;;;5017930;28;20507;-81
2021/03/02 00:50:53;;;;;;;1999.90;999.90;;;2.80;99.90;;;;;;5018110;28;20166;-81
2021/03/02 00:53:18;;;;;;;1999.90;999.90;;;2.80;99.90;;;;;;5017409;28;20166;-81
2021/03/02 00:55:44;;;;;;;1999.90;999.90;;;2.90;99.90;;;;;;5017665;28;20526;-81
2021/03/02 00:58:13;;;;;;;1999.90;999.90;;;2.80;99.90;;;;;;5017188;28;20212;-81
2021/03/02 01:00:38;;;;;;;1999.90;999.90;;;2.80;99.90;;;;;;5017306;28;20173;-80
2021/03/02 01:03:04;;;;;;;1999.90;999.90;;;2.80;99.90;;;;;;5017707;28;20162;-81
2021/03/02 01:05:30;;;;;;;1999.90;999.90;;;2.80;99.90;;;;;;5017478;28;20240;-81
2021/03/02 01:07:56;;;;;;;1999.90;999.90;;;2.80;99.90;;;;;;5028427;28;20397;-80
2021/03/02 01:10:21;;;;;;;1999.90;999.90;;;2.80;99.90;;;;;;5033100;28;20497;-80
2021/03/02 01:12:47;;;;;;;1999.90;999.90;;;2.70;99.90;;;;;;5024737;28;20212;-81
2021/03/02 01:15:13;;;;;;;1999.90;999.90;;;2.70;99.90;;;;;;5017525;28;20193;-81
2021/03/02 01:17:39;;;;;;;1999.90;999.90;;;2.70;99.90;;;;;;5017389;28;20577;-81
2021/03/02 01:20:05;;;;;;;1999.90;999.90;;;2.60;99.90;;;;;;5016805;28;20170;-81
2021/03/02 01:22:31;;;;;;;1999.90;999.90;;;2.60;99.90;;;;;;5016781;28;20589;-81
2021/03/02 01:24:59;;;;;;;1999.90;999.90;;;2.60;99.90;;;;;;5017133;28;20169;-81
2021/03/02 01:27:25;;;;;;;1999.90;999.90;;;2.60;99.90;;;;;;5015710;28;20173;-80
2021/03/02 01:29:50;;;;;;;1999.90;999.90;;;2.60;99.90;;;;;;5015673;28;20260;-81
2021/03/02 01:32:16;;;;;;;1999.90;999.90;;;2.60;99.90;;;;;;5016769;28;20171;-81
2021/03/02 01:34:42;;;;;;;1999.90;999.90;;;2.70;99.90;;;;;;5016836;28;20193;-81
2021/03/02 01:37:07;;;;;;;1999.90;999.90;;;2.70;99.90;;;;;;5017446;28;20170;-81
2021/03/02 01:39:33;;;;;;;1999.90;999.90;;;2.60;99.90;;;;;;5017052;28;20172;-81
2021/03/02 01:42:00;;;;;;;1999.90;999.90;;;2.60;99.90;;;;;;5017461;28;20273;-81
2021/03/02 01:44:30;;;;;;;1999.90;999.90;;;2.70;99.90;;;;;;5017087;28;20191;-81
2021/03/02 01:46:57;;;;;;;1999.90;999.90;;;2.90;99.90;;;;;;5017441;28;20181;-81
2021/03/02 01:49:23;;;;;;;1999.90;999.90;;;3.00;99.90;;;;;;5016932;28;20172;-81
2021/03/02 01:51:48;;;;;;;1999.90;999.90;;;3.00;99.90;;;;;;5016959;28;20169;-81
2021/03/02 01:54:15;;;;;;;1999.90;999.90;;;3.10;99.90;;;;;;5015488;28;20173;-81
2021/03/02 01:56:42;;;;;;;1999.90;999.90;;;3.20;99.90;;;;;;5016723;28;20408;-81
2021/03/02 01:59:08;;;;;;;1999.90;999.90;;;3.30;99.90;;;;;;5015037;28;20189;-81
2021/03/02 02:01:40;;;;;;;1999.90;999.90;;;3.40;99.90;;;;;;5099770;22;20220;-81
2021/03/02 02:04:34;;;;;;;1999.90;999.90;;;3.40;99.90;;;;;;5033927;28;20509;-81
2021/03/02 02:07:18;;;;;;;1999.90;999.90;;;3.50;99.90;;;;;;5034122;28;20145;-81
2021/03/02 02:10:03;;;;;;;1999.90;999.90;;;3.50;99.90;;;;;;5033916;28;20153;-81
2021/03/02 02:12:57;;;;;;;1999.90;999.90;;;3.50;99.90;;;;;;5032829;28;20184;-81
2021/03/02 02:15:32;;;;;;;1999.90;999.90;;;3.50;99.90;;;;;;5033672;28;20181;-81
2021/03/02 02:18:12;;;;;;;1999.90;999.90;;;3.50;99.90;;;;;;5033729;28;20163;-81
2021/03/02 02:21:12;;;;;;;1999.90;999.90;;;3.40;99.90;;;;;;5033837;28;20148;-81
2021/03/02 02:23:55;;;;;;;1999.90;999.90;;;3.40;99.90;;;;;;5032232;28;20263;-80
2021/03/02 02:26:49;;;;;;;1999.90;999.90;;;3.40;99.90;;;;;;5033926;28;20157;-81
2021/03/02 02:29:21;;;;;;;1999.90;999.90;;;3.30;99.90;;;;;;5032268;28;20173;-81
2021/03/02 02:31:51;;;;;;;1999.90;999.90;;;3.40;99.90;;;;;;5033090;28;20157;-81
2021/03/02 02:34:30;;;;;;;1999.90;999.90;;;3.30;99.90;;;;;;5033359;28;20164;-81
2021/03/02 02:36:59;;;;;;;1999.90;999.90;;;3.30;99.90;;;;;;5032568;28;20164;-81
2021/03/02 02:39:27;;;;;;;1999.90;999.90;;;3.30;99.90;;;;;;5033363;28;20169;-81
2021/03/02 02:41:53;;;;;;;1999.90;999.90;;;3.20;99.90;;;;;;5033554;28;20161;-81
2021/03/02 02:44:30;;;;;;;1999.90;999.90;;;3.10;99.90;;;;;;5033736;28;20165;-81
2021/03/02 02:46:58;;;;;;;1999.90;999.90;;;3.10;99.90;;;;;;5033527;28;20137;-81
2021/03/02 02:49:30;;;;;;;1999.90;999.90;;;3.20;99.90;;;;;;5033371;28;20595;-81
2021/03/02 02:51:56;;;;;;;1999.90;999.90;;;3.20;99.90;;;;;;5033517;28;20153;-81
2021/03/02 02:54:28;;;;;;;1999.90;999.90;;;3.10;99.90;;;;;;5032234;28;20173;-81
2021/03/02 02:57:00;;;;;;;1999.90;999.90;;;3.10;99.90;;;;;;5033450;28;20197;-81
2021/03/02 02:59:32;;;;;;;1999.90;999.90;;;3.00;99.90;;;;;;5032054;28;20165;-81
2021/03/02 03:02:03;;;;;;;1999.90;999.90;;;3.00;99.90;;;;;;5033352;28;20176;-81
2021/03/02 03:04:39;;;;;;;1999.90;999.90;;;2.90;99.90;;;;;;5033315;28;20158;-81
2021/03/02 03:07:10;;;;;;;1999.90;999.90;;;2.80;99.90;;;;;;5031981;28;20644;-81
2021/03/02 03:09:36;;;;;;;1999.90;999.90;;;2.80;99.90;;;;;;5033239;28;20614;-81
2021/03/02 03:12:12;;;;;;;1999.90;999.90;;;2.80;99.90;;;;;;5048601;28;20606;-81
2021/03/02 03:14:46;;;;;;;1999.90;999.90;;;2.80;99.90;;;;;;5033279;28;20181;-81
2021/03/02 03:17:13;;;;;;;1999.90;999.90;;;2.70;99.90;;;;;;5033256;28;20612;-81
2021/03/02 03:19:43;;;;;;;1999.90;999.90;;;2.70;99.90;;;;;;5033139;28;20172;-81
2021/03/02 03:22:09;;;;;;;1999.90;999.90;;;2.60;99.90;;;;;;5033351;28;20237;-81
2021/03/02 03:24:41;;;;;;;1999.90;999.90;;;2.60;99.90;;;;;;5032032;28;20172;-81
2021/03/02 03:27:08;;;;;;;1999.90;999.90;;;2.60;99.90;;;;;;5032193;28;20643;-81
2021/03/02 03:29:41;;;;;;;1999.90;999.90;;;2.60;99.90;;;;;;5033256;28;20244;-81
2021/03/02 03:32:13;;;;;;;1999.90;999.90;;;2.60;99.90;;;;;;5033198;28;20154;-81
2021/03/02 03:34:44;;;;;;;1999.90;999.90;;;2.60;99.90;;;;;;5033111;28;20181;-81
2021/03/02 03:37:10;;;;;;;1999.90;999.90;;;2.60;99.90;;;;;;5033199;28;20157;-81
2021/03/02 03:39:36;;;;;;;1999.90;999.90;;;2.60;99.90;;;;;;5031917;28;20307;-81
2021/03/02 03:42:04;;;;;;;1999.90;999.90;;;2.60;99.90;;;;;;5033132;28;20685;-81
2021/03/02 03:44:30;;;;;;;1999.90;999.90;;;2.60;99.90;;;;;;5035279;28;20415;-81
2021/03/02 03:47:04;;;;;;;1999.90;999.90;;;2.70;99.90;;;;;;5035257;28;20168;-81
2021/03/02 03:49:29;;;;;;;1999.90;999.90;;;2.60;99.90;;;;;;5036652;28;20493;-81
2021/03/02 03:52:00;;;;;;;1999.90;999.90;;;2.60;99.90;;;;;;5036576;28;20199;-81
2021/03/02 03:54:27;;;;;;;1999.90;999.90;;;2.60;99.90;;;;;;5036416;28;20154;-81
2021/03/02 03:57:27;;;;;;;1999.90;999.90;;;2.60;99.90;;;;;;5036089;28;20176;-81
2021/03/02 03:59:54;;;;;;;1999.90;999.90;;;2.60;99.90;;;;;;5035788;28;20177;-81
2021/03/02 04:02:25;;;;;;;1999.90;999.90;;;2.70;99.90;;;;;;5036299;28;20526;-81
2021/03/02 04:04:54;;;;;;;1999.90;999.90;;;2.70;99.90;;;;;;5035264;28;20165;-81
2021/03/02 04:07:32;;;;;;;1999.90;999.90;;;2.90;99.90;;;;;;5036598;28;20165;-81
2021/03/02 04:10:05;;;;;;;1999.90;999.90;;;2.90;99.90;;;;;;5036275;28;20204;-81
2021/03/02 04:12:42;;;;;;;1999.90;999.90;;;3.00;99.90;;;;;;5034787;28;20514;-81
2021/03/02 04:15:17;;;;;;;1999.90;999.90;;;3.10;99.90;;;;;;5034678;28;20189;-81
2021/03/02 04:17:54;;;;;;;1999.90;999.90;;;3.10;99.90;;;;;;5051249;28;20362;-81
2021/03/02 04:20:23;;;;;;;1999.90;999.90;;;3.10;99.90;;;;;;5036051;28;20145;-81
2021/03/02 04:22:55;;;;;;;1999.90;999.90;;;3.10;99.90;;;;;;5035856;28;20244;-81
2021/03/02 04:25:33;;;;;;;1999.90;999.90;;;3.20;99.90;;;;;;5034446;28;20165;-81
2021/03/02 04:28:03;;;;;;;1999.90;999.90;;;3.20;99.90;;;;;;5035847;28;20248;-81
2021/03/02 04:30:35;;;;;;;1999.90;999.90;;;3.20;99.90;;;;;;5035683;28;20157;-81
2021/03/02 04:33:04;;;;;;;1999.90;999.90;;;3.20;99.90;;;;;;5034473;28;20648;-81
2021/03/02 04:35:39;;;;;;;1999.90;999.90;;;3.30;99.90;;;;;;5034160;28;20203;-80
2021/03/02 04:38:09;;;;;;;1999.90;999.90;;;3.30;99.90;;;;;;5035636;28;20191;-81
2021/03/02 04:40:35;;;;;;;1999.90;999.90;;;3.30;99.90;;;;;;5035873;28;20146;-81
2021/03/02 04:43:03;;;;;;;1999.90;999.90;;;3.20;99.90;;;;;;5035147;28;20161;-81
2021/03/02 04:45:32;;;;;;;1999.90;999.90;;;3.30;99.90;;;;;;5035384;28;20158;-81
2021/03/02 04:48:05;;;;;;;1999.90;999.90;;;3.30;99.90;;;;;;5035344;28;20162;-81
2021/03/02 04:50:34;;;;;;;1999.90;999.90;;;3.30;99.90;;;;;;5034055;28;20170;-81
2021/03/02 04:52:59;;;;;;;1999.90;999.90;;;3.30;99.90;;;;;;5035276;28;20170;-81
2021/03/02 04:55:25;;;;;;;1999.90;999.90;;;3.30;99.90;;;;;;5033185;28;20189;-81
2021/03/02 04:57:57;;;;;;;1999.90;999.90;;;3.30;99.90;;;;;;5035053;28;20528;-80
2021/03/02 05:00:43;;;;;;;1999.90;999.90;;;3.30;99.90;;;;;;5034811;28;20169;-81
2021/03/02 05:03:09;;;;;;;1999.90;999.90;;;3.30;99.90;;;;;;5034744;28;20180;-80
2021/03/02 05:05:35;;;;;;;1999.90;999.90;;;3.30;99.90;;;;;;5050301;28;20191;-81
2021/03/02 05:08:06;;;;;;;1999.90;999.90;;;3.30;99.90;;;;;;5034863;28;20157;-81
2021/03/02 05:10:52;;;;;;;1999.90;999.90;;;3.30;99.90;;;;;;5034831;28;20149;-81
2021/03/02 05:13:27;;;;;;;1999.90;999.90;;;3.30;99.90;;;;;;5035166;28;20161;-81
2021/03/02 05:15:55;;;;;;;1999.90;999.90;;;3.30;99.90;;;;;;5034701;28;20181;-81
2021/03/02 05:18:24;;;;;;;1999.90;999.90;;;3.30;99.90;;;;;;5033515;28;20643;-81
2021/03/02 05:20:57;;;;;;;1999.90;999.90;;;3.30;99.90;;;;;;5034787;28;20157;-80
2021/03/02 05:23:28;;;;;;;1999.90;999.90;;;3.30;99.90;;;;;;5049960;28;20165;-81
2021/03/02 05:25:54;;;;;;;1999.90;999.90;;;3.30;99.90;;;;;;5034925;28;20169;-81
2021/03/02 05:28:20;;;;;;;1999.90;999.90;;;3.30;99.90;;;;;;5034587;28;20576;-81
2021/03/02 05:30:46;;;;;;;1999.90;999.90;;;3.30;99.90;;;;;;5034850;28;20165;-80
2021/03/02 05:33:12;;;;;;;1999.90;999.90;;;3.30;99.90;;;;;;5034462;28;20517;-81
2021/03/02 05:35:43;;;;;;;1999.90;999.90;;;3.40;99.90;;;;;;5034303;28;20494;-81
2021/03/02 05:38:12;;;;;;;1999.90;999.90;;;3.40;99.90;;;;;;5034513;28;20431;-81
2021/03/02 05:40:41;;;;;;;1999.90;999.90;;;3.40;99.90;;;;;;5034526;28;20244;-81
2021/03/02 05:43:13;;;;;;;1999.90;999.90;;;3.40;99.90;;;;;;5032991;28;20165;-80
2021/03/02 05:45:43;;;;;;;1999.90;999.90;;;3.40;99.90;;;;;;5033680;28;20257;-81
2021/03/02 05:48:12;;;;;;;1999.90;999.90;;;3.40;99.90;;;;;;5034234;28;20158;-81
2021/03/02 05:50:41;;;;;;;1999.90;999.90;;;3.40;99.90;;;;;;5034081;28;20250;-81
2021/03/02 05:53:10;;;;;;;1999.90;999.90;;;3.40;99.90;;;;;;5034079;28;20163;-81
2021/03/02 05:55:41;;;;;;;1999.90;999.90;;;3.40;99.90;;;;;;5033961;28;20185;-81
2021/03/02 05:58:10;;;;;;;1999.90;999.90;;;3.40;99.90;;;;;;5034047;28;20165;-81
2021/03/02 06:00:36;;;;;;;1999.90;999.90;;;3.40;99.90;;;;;;5034039;28;20167;-81
2021/03/02 06:03:02;;;;;;;1999.90;999.90;;;3.40;99.90;;;;;;5033984;28;20248;-81
2021/03/02 06:05:30;;;;;;;1999.90;999.90;;;3.40;99.90;;;;;;5033986;28;20165;-81
2021/03/02 06:07:59;;;;;;;1999.90;999.90;;;3.40;99.90;;;;;;5032407;28;20400;-81
2021/03/02 06:10:35;;;;;;;1999.90;999.90;;;3.30;99.90;;;;;;5032890;28;20709;-80
2021/03/02 06:13:01;;;;;;;1999.90;999.90;;;3.30;99.90;;;;;;5032623;28;20173;-81
2021/03/02 06:15:29;;;;;;;1999.90;999.90;;;3.30;99.90;;;;;;5033766;28;20215;-81
2021/03/02 06:18:22;;;;;;;1999.90;999.90;;;3.30;99.90;;;;;;5032686;28;20161;-81
2021/03/02 06:20:51;;;;;;;1999.90;999.90;;;3.30;99.90;;;;;;5033725;28;20191;-81
2021/03/02 06:23:28;;;;;;;1999.90;999.90;;;3.20;99.90;;;;;;5032539;28;20169;-81
2021/03/02 06:26:13;;;;;;;1999.90;999.90;;;3.30;99.90;;;;;;5034035;28;20207;-81
2021/03/02 06:28:44;;;;;;;1999.90;999.90;;;3.30;99.90;;;;;;5034233;28;20165;-81
2021/03/02 06:31:41;;;;;;;1999.90;999.90;;;3.20;99.90;;;;;;5032705;28;20544;-81
2021/03/02 06:34:15;;;;;;;1999.90;999.90;;;3.20;99.90;;;;;;5049163;28;20252;-81
2021/03/02 06:36:54;;;;;;;1999.90;999.90;;;3.20;99.90;;;;;;5033886;28;20201;-81
2021/03/02 06:39:40;;;;;;;1999.90;999.90;;;3.10;99.90;;;;;;5034157;28;20173;-81
2021/03/02 06:42:30;;;;;;;1999.90;999.90;;;3.10;99.90;;;;;;5034272;28;20198;-81
2021/03/02 06:45:18;;;;;;;1999.90;999.90;;;3.20;99.90;;;;;;5032977;28;20166;-81
2021/03/02 06:48:13;;;;;;;1999.90;999.90;;;3.30;99.90;;;;;;5034316;28;20207;-81
2021/03/02 06:50:50;;;;;;;1999.90;999.90;;;3.30;99.90;;;;;;5034506;28;20154;-81
2021/03/02 06:53:30;;;;;;;1999.90;999.90;;;3.30;99.90;;;;;;5049542;28;20253;-81
2021/03/02 06:56:14;;;;;;;1999.90;999.90;;;3.30;99.90;;;;;;5049678;28;20191;-81
2021/03/02 06:58:40;;;;;;;1999.90;999.90;;;3.30;99.90;;;;;;5034361;28;20161;-81
2021/03/02 07:01:08;;;;;;;1999.90;999.90;;;3.30;99.90;;;;;;5034118;28;20162;-81
2021/03/02 07:03:38;;;;;;;1999.90;999.90;;;3.30;99.90;;;;;;5035795;28;20408;-81
2021/03/02 07:06:08;;;;;;;1999.90;999.90;;;3.30;99.90;;;;;;5035955;28;20169;-81
2021/03/02 07:08:42;;;;;;;1999.90;999.90;;;3.40;99.90;;;;;;5035591;28;20187;-81
2021/03/02 07:11:08;;;;;;;1999.90;999.90;;;3.40;99.90;;;;;;5035649;28;20652;-81
2021/03/02 07:13:47;;;;;;;1999.90;999.90;;;3.50;99.90;;;;;;5035535;28;20183;-81
2021/03/02 07:16:15;;;;;;;1999.90;999.90;;;3.50;99.90;;;;;;5037175;28;20181;-81
2021/03/02 07:18:50;;;;;;;1999.90;999.90;;;3.60;99.90;;;;;;5053385;28;20260;-81
2021/03/02 07:21:31;;;;;;;1999.90;999.90;;;3.70;99.90;;;;;;5038432;28;20662;-81
2021/03/02 07:24:21;;;;;;;1999.90;999.90;;;3.70;99.90;;;;;;5039305;28;20236;-81
2021/03/02 07:27:01;;;;;;;1999.90;999.90;;;3.80;99.90;;;;;;5036145;28;20177;-81
2021/03/02 07:29:27;;;;;;;1999.90;999.90;;;3.90;99.90;;;;;;5040098;28;20165;-82
2021/03/02 07:31:53;;;;;;;1999.90;999.90;;;4.00;99.90;;;;;;5040287;28;20176;-81
2021/03/02 07:34:22;;;;;;;1999.90;999.90;;;4.10;99.90;;;;;;5040104;28;20172;-81
2021/03/02 07:37:02;;;;;;;1999.90;999.90;;;4.10;99.90;;;;;;5038284;28;20161;-81
2021/03/02 07:39:28;;;;;;;1999.90;999.90;;;4.20;99.90;;;;;;5039989;28;20142;-81
2021/03/02 07:41:55;;;;;;;1999.90;999.90;;;4.20;99.90;;;;;;5039947;28;20189;-81
2021/03/02 07:44:21;;;;;;;1999.90;999.90;;;4.30;99.90;;;;;;5038414;28;20535;-81
2021/03/02 07:46:56;;;;;;;1999.90;999.90;;;4.40;99.90;;;;;;5039830;28;20193;-81
2021/03/02 07:49:24;;;;;;;1999.90;999.90;;;4.50;99.90;;;;;;5038666;28;20157;-81
2021/03/02 07:51:56;;;;;;;1999.90;999.90;;;4.60;99.90;;;;;;5040088;28;20165;-81
2021/03/02 07:54:23;;;;;;;1999.90;999.90;;;4.70;99.90;;;;;;5039770;28;20641;-81
2021/03/02 07:56:49;;;;;;;1999.90;999.90;;;4.70;99.90;;;;;;5038316;28;20191;-81
2021/03/02 07:59:15;;;;;;;1999.90;999.90;;;4.80;99.90;;;;;;5038632;28;20241;-81
2021/03/02 08:01:41;;;;;;;1999.90;999.90;;;4.90;99.90;;;;;;5037129;28;20431;-81
2021/03/02 08:04:16;;;;;;;1999.90;999.90;;;5.00;99.90;;;;;;5036642;28;20589;-80
2021/03/02 08:06:50;;;;;;;1999.90;999.90;;;5.10;99.90;;;;;;5036529;28;20169;-80
2021/03/02 08:09:21;;;;;;;1999.90;999.90;;;5.30;99.90;;;;;;5037155;28;20157;-80
2021/03/02 08:11:50;;;;;;;1999.90;999.90;;;5.40;99.90;;;;;;5037300;28;20165;-80
2021/03/02 08:14:18;;;;;;;1999.90;999.90;;;5.50;99.90;;;;;;5037396;28;20161;-80
2021/03/02 08:17:04;;;;;;;1999.90;999.90;;;5.60;99.90;;;;;;5038199;28;20582;-80
2021/03/02 08:19:37;;;;;;;1999.90;999.90;;;5.70;99.90;;;;;;5037991;28;20228;-80
2021/03/02 08:22:25;;;;;;;1999.90;999.90;;;5.70;99.90;;;;;;5038886;28;20248;-81
2021/03/02 08:25:05;;;;;;;1999.90;999.90;;;5.80;99.90;;;;;;5038842;28;20566;-81
2021/03/02 08:27:44;;;;;;;1999.90;999.90;;;5.90;99.90;;;;;;5038123;28;20649;-81
2021/03/02 08:30:13;;;;;;;1999.90;999.90;;;6.00;99.90;;;;;;5038193;28;20145;-81
2021/03/02 08:32:41;;;;;;;1999.90;999.90;;;6.00;99.90;;;;;;5039249;28;20169;-81
2021/03/02 08:35:09;;;;;;;1999.90;999.90;;;6.10;99.90;;;;;;5038740;28;20189;-81
2021/03/02 08:37:47;;;;;;;1999.90;999.90;;;6.20;99.90;;;;;;5038596;28;20168;-81
2021/03/02 08:40:18;;;;;;;1999.90;999.90;;;6.20;99.90;;;;;;5037631;28;20149;-80
2021/03/02 08:43:07;;;;;;;1999.90;999.90;;;6.30;99.90;;;;;;5037167;28;20187;-80
2021/03/02 08:45:45;;;;;;;1999.90;999.90;;;6.50;99.90;;;;;;5037163;28;20169;-80
2021/03/02 08:48:24;;;;;;;1999.90;999.90;;;6.50;99.90;;;;;;5036011;28;20165;-80
2021/03/02 08:51:12;;;;;;;1999.90;999.90;;;6.60;99.90;;;;;;5036198;28;20187;-81
2021/03/02 08:53:43;;;;;;;1999.90;999.90;;;6.60;99.90;;;;;;5036893;28;20694;-80
2021/03/02 08:56:12;;;;;;;1999.90;999.90;;;6.70;99.90;;;;;;5035023;28;20224;-80
2021/03/02 08:58:40;;;;;;;1999.90;999.90;;;6.80;99.90;;;;;;5036526;28;20157;-81
2021/03/02 09:01:09;;;;;;;1999.90;999.90;;;6.90;99.90;;;;;;5035123;28;20664;-80
2021/03/02 09:03:37;;;;;;;1999.90;999.90;;;7.00;99.90;;;;;;5036669;28;20180;-80
2021/03/02 09:06:17;;;;;;;1999.90;999.90;;;7.00;99.90;;;;;;5036773;28;20211;-80
2021/03/02 09:08:47;;;;;;;1999.90;999.90;;;7.20;99.90;;;;;;5035046;28;20168;-80
2021/03/02 09:11:14;;;;;;;1999.90;999.90;;;7.30;99.90;;;;;;5036681;28;20698;-80
2021/03/02 09:13:41;;;;;;;1999.90;999.90;;;7.30;99.90;;;;;;5036095;28;20179;-80
2021/03/02 09:16:33;;;;;;;1999.90;999.90;;;7.40;99.90;;;;;;5036262;28;20209;-80
2021/03/02 09:19:04;;;;;;;1999.90;999.90;;;7.50;99.90;;;;;;5036639;28;20156;-80
2021/03/02 09:21:30;;;;;;;1999.90;999.90;;;7.60;99.90;;;;;;5036144;28;20585;-80
2021/03/02 09:23:58;;;;;;;1999.90;999.90;;;7.70;99.90;;;;;;5036003;28;20165;-80
2021/03/02 09:26:26;;;;;;;1999.90;999.90;;;7.80;99.90;;;;;;5034577;28;20173;-80
2021/03/02 09:28:57;;;;;;;1999.90;999.90;;;7.90;99.90;;;;;;5034852;28;20165;-77
2021/03/02 09:31:24;;;;;;;1999.90;999.90;;;7.90;99.90;;;;;;5034795;28;20157;-77
2021/03/02 09:33:50;;;;;;;1999.90;999.90;;;8.00;99.90;;;;;;5033169;28;20169;-77
2021/03/02 09:36:23;;;;;;;1999.90;999.90;;;8.10;99.90;;;;;;5035600;28;20197;-78
2021/03/02 09:38:54;;;;;;;1999.90;999.90;;;8.20;99.90;;;;;;5033899;28;20170;-78
2021/03/02 09:41:37;;;;;;;1999.90;999.90;;;8.30;99.90;;;;;;5036359;28;20199;-80
2021/03/02 09:44:28;;;;;;;1999.90;999.90;;;8.40;99.90;;;;;;5036223;28;20193;-80
2021/03/02 09:46:57;;;;;;;1999.90;999.90;;;8.50;99.90;;;;;;5035758;28;20163;-78
2021/03/02 09:49:44;;;;;;;1999.90;999.90;;;8.60;99.90;;;;;;5034927;28;20173;-78
2021/03/02 09:52:27;;;;;;;1999.90;999.90;;;8.80;99.90;;;;;;5033260;28;20189;-78
2021/03/02 09:55:21;;;;;;;1999.90;999.90;;;8.90;99.90;;;;;;5033275;28;20192;-78
2021/03/02 09:57:56;;;;;;;1999.90;999.90;;;9.00;99.90;;;;;;5034696;28;20229;-79
2021/03/02 10:00:32;;;;;;;1999.90;999.90;;;9.20;99.90;;;;;;5035823;28;20141;-78
2021/03/02 10:03:09;;;;;;;1999.90;999.90;;;9.20;99.90;;;;;;5033973;28;20199;-78
2021/03/02 10:05:40;;;;;;;1999.90;999.90;;;9.30;99.90;;;;;;5182621;22;20637;-80
2021/03/02 10:08:21;;;;;;;1999.90;999.90;;;9.50;99.90;;;;;;5017158;28;20147;-79
2021/03/02 10:10:47;;;;;;;1999.90;999.90;;;9.60;99.90;;;;;;5015503;28;20169;-79
2021/03/02 10:13:25;;;;;;;1999.90;999.90;;;9.80;99.90;;;;;;5016915;28;20170;-79
2021/03/02 10:16:08;;;;;;;1999.90;999.90;;;9.90;99.90;;;;;;5015404;28;20198;-79
2021/03/02 10:18:33;;;;;;;1999.90;999.90;;;10.00;99.90;;;;;;5018256;28;20614;-81
2021/03/02 10:21:07;;;;;;;1999.90;999.90;;;10.20;99.90;;;;;;5021487;28;20165;-81
2021/03/02 10:23:34;;;;;;;1999.90;999.90;;;10.20;99.90;;;;;;5018128;28;20146;-81
2021/03/02 10:26:00;;;;;;;1999.90;999.90;;;10.40;99.90;;;;;;5015693;28;20538;-82
2021/03/02 10:28:30;;;;;;;1999.90;999.90;;;10.50;99.90;;;;;;5016909;28;20162;-81
2021/03/02 10:30:56;;;;;;;1999.90;999.90;;;10.50;99.90;;;;;;5016842;28;20181;-81
2021/03/02 10:33:22;;;;;;;1999.90;999.90;;;10.60;99.90;;;;;;5015491;28;20165;-80
2021/03/02 10:35:48;;;;;;;1999.90;999.90;;;10.60;99.90;;;;;;5015971;28;20194;-81
2021/03/02 10:38:14;;;;;;;1999.90;999.90;;;10.70;99.90;;;;;;5017242;28;20576;-81
2021/03/02 10:40:40;;;;;;;1999.90;999.90;;;10.70;99.90;;;;;;5016817;28;20668;-80
2021/03/02 10:43:05;;;;;;;1999.90;999.90;;;10.90;99.90;;;;;;5016271;28;20216;-79
2021/03/02 10:45:31;;;;;;;1999.90;999.90;;;10.90;99.90;;;;;;5016467;28;20536;-81
2021/03/02 10:47:57;;;;;;;1999.90;999.90;;;11.00;99.90;;;;;;5016942;28;20176;-82
2021/03/02 10:50:22;;;;;;;1999.90;999.90;;;11.20;99.90;;;;;;5016952;28;20655;-81
2021/03/02 10:52:48;;;;;;;1999.90;999.90;;;11.30;99.90;;;;;;5016897;28;20155;-81
2021/03/02 10:55:14;;;;;;;1999.90;999.90;;;11.40;99.90;;;;;;5019785;28;20444;-81
2021/03/02 10:57:39;;;;;;;1999.90;999.90;;;11.50;99.90;;;;;;5019520;28;20205;-82
2021/03/02 11:00:06;;;;;;;1999.90;999.90;;;11.70;99.90;;;;;;5020756;28;20176;-81
2021/03/02 11:02:31;;;;;;;1999.90;999.90;;;11.80;99.90;;;;;;5020721;28;20166;-81
2021/03/02 11:04:57;;;;;;;1999.90;999.90;;;12.00;99.90;;;;;;5020481;28;20224;-81
2021/03/02 11:07:23;;;;;;;1999.90;999.90;;;12.10;98.30;;;;;;5019339;28;20170;-78
2021/03/02 11:09:50;;;;;;;1999.90;999.90;;;11.90;99.10;;;;;;5018881;28;20240;-82
2021/03/02 11:12:15;;;;;;;1999.90;999.90;;;12.00;99.30;;;;;;5020646;28;20405;-81
2021/03/02 11:14:41;;;;;;;1999.90;999.90;;;12.20;98.30;;;;;;5020428;28;20169;-81
2021/03/02 11:17:07;;;;;;;1999.90;999.90;;;12.20;97.20;;;;;;5019111;28;20217;-81
2021/03/02 11:19:32;;;;;;;1999.90;999.90;;;12.30;97.10;;;;;;5020193;28;20157;-80
2021/03/02 11:21:58;;;;;;;1999.90;999.90;;;12.40;94.60;;;;;;5020804;28;20162;-81
2021/03/02 11:24:24;;;;;;;1999.90;999.90;;;12.40;96.40;;;;;;5020206;28;20166;-81
2021/03/02 11:26:50;;;;;;;1999.90;999.90;;;12.50;95.60;;;;;;5019245;28;20173;-81
2021/03/02 11:29:17;;;;;;;1999.90;999.90;;;12.60;94.40;;;;;;5021132;28;20166;-81
2021/03/02 11:31:43;;;;;;;1999.90;999.90;;;12.70;93.30;;;;;;5020945;28;20430;-81
2021/03/02 11:34:08;;;;;;;1999.90;999.90;;;12.80;92.10;;;;;;5019218;28;20659;-79
2021/03/02 11:36:34;;;;;;;1999.90;999.90;;;12.90;90.40;;;;;;5020512;28;20200;-81
2021/03/02 11:39:00;;;;;;;1999.90;999.90;;;12.90;90.40;;;;;;5020755;28;20158;-81
2021/03/02 11:41:26;;;;;;;1999.90;999.90;;;13.00;90.60;;;;;;5020635;28;20168;-79
2021/03/02 11:43:51;;;;;;;1999.90;999.90;;;13.10;88.50;;;;;;5018706;28;20542;-80
2021/03/02 11:46:17;;;;;;;1999.90;999.90;;;13.20;90.00;;;;;;5020398;28;20176;-81
2021/03/02 11:48:43;;;;;;;1999.90;999.90;;;13.30;81.10;;;;;;5020316;28;20204;-79
2021/03/02 11:51:08;;;;;;;1999.90;999.90;;;13.30;74.90;;;;;;5019419;28;20170;-79
2021/03/02 11:53:34;;;;;;;1999.90;999.90;;;13.50;84.30;;;;;;5017730;28;20225;-78
2021/03/02 11:56:00;;;;;;;1999.90;999.90;;;13.60;75.60;;;;;;5019623;28;20194;-78
2021/03/02 11:58:28;;;;;;;1999.90;999.90;;;13.70;71.00;;;;;;5033966;28;20525;-79
2021/03/02 12:00:53;;;;;;;1999.90;999.90;;;13.80;63.00;;;;;;5018648;28;20169;-81
2021/03/02 12:03:19;;;;;;;1999.90;999.90;;;13.70;64.30;;;;;;5020299;28;20162;-82
2021/03/02 12:05:45;;;;;;;1999.90;999.90;;;13.90;59.80;;;;;;5018048;28;20530;-79
2021/03/02 12:08:11;;;;;;;1999.90;999.90;;;14.00;56.80;;;;;;5018121;28;20273;-79
2021/03/02 12:10:40;;;;;;;1999.90;999.90;;;14.20;58.80;;;;;;5019761;28;20170;-82
2021/03/02 12:13:06;;;;;;;1999.90;999.90;;;14.30;52.90;;;;;;5019586;28;20405;-80
2021/03/02 12:15:32;;;;;;;1999.90;999.90;;;14.50;51.30;;;;;;5017905;28;20206;-79
2021/03/02 12:17:57;;;;;;;1999.90;999.90;;;14.50;50.10;;;;;;5019705;28;20200;-79
2021/03/02 12:20:23;;;;;;;1999.90;999.90;;;14.50;40.70;;;;;;5020011;28;20166;-82
2021/03/02 12:22:49;;;;;;;1999.90;999.90;;;14.50;42.40;;;;;;5019210;28;20220;-82
2021/03/02 12:25:15;;;;;;;1999.90;999.90;;;14.40;41.80;;;;;;5034263;28;20169;-79